createdAt,value
2018-01-03T00:00:38.491Z,5.50
2018-01-03T00:03:06.138Z,5.50
2018-01-03T00:05:34.595Z,5.50
2018-01-03T00:08:02.306Z,5.50
2018-01-03T00:10:30.004Z,5.50
2018-01-03T00:12:57.674Z,5.60
2018-01-03T00:15:25.362Z,5.60
2018-01-03T00:17:53.010Z,5.50
2018-01-03T00:20:21.463Z,5.60
2018-01-03T00:22:49.110Z,5.60
2018-01-03T00:25:16.819Z,5.60
2018-01-03T00:27:44.462Z,5.60
2018-01-03T00:30:12.916Z,5.60
2018-01-03T00:32:40.566Z,5.60
2018-01-03T00:35:08.258Z,5.60
2018-01-03T00:37:36.702Z,5.60
2018-01-03T00:40:04.392Z,5.60
2018-01-03T00:42:32.798Z,5.50
2018-01-03T00:45:00.490Z,5.50
2018-01-03T00:47:28.154Z,5.60
2018-01-03T00:49:55.850Z,5.50
2018-01-03T00:52:24.319Z,5.60
2018-01-03T00:54:52.775Z,5.60
2018-01-03T00:57:20.474Z,5.60
2018-01-03T00:59:48.946Z,5.70
2018-01-03T01:02:17.362Z,5.70
2018-01-03T01:04:45.105Z,5.60
2018-01-03T01:07:12.761Z,5.70
2018-01-03T01:09:40.484Z,5.70
2018-01-03T01:12:08.136Z,5.60
2018-01-03T01:14:35.830Z,5.50
2018-01-03T01:17:03.482Z,5.60
2018-01-03T01:19:31.941Z,5.60
2018-01-03T01:21:59.594Z,5.60
2018-01-03T01:24:27.287Z,5.60
2018-01-03T01:26:54.935Z,5.60
2018-01-03T01:29:23.393Z,5.60
2018-01-03T01:31:51.044Z,5.60
2018-01-03T01:34:18.743Z,5.70
2018-01-03T01:36:46.391Z,5.70
2018-01-03T01:39:14.846Z,5.80
2018-01-03T01:41:42.499Z,5.70
2018-01-03T01:44:10.195Z,5.70
2018-01-03T01:46:38.615Z,5.70
2018-01-03T01:49:07.974Z,5.70
2018-01-03T01:51:35.618Z,5.80
2018-01-03T01:54:04.114Z,5.70
2018-01-03T01:56:31.771Z,5.70
2018-01-03T01:58:59.418Z,5.80
2018-01-03T02:01:27.878Z,5.80
2018-01-03T02:03:55.529Z,5.80
2018-01-03T02:06:23.221Z,5.80
2018-01-03T02:08:51.639Z,5.80
2018-01-03T02:11:19.326Z,5.80
2018-01-03T02:13:46.973Z,5.90
2018-01-03T02:16:14.671Z,5.80
2018-01-03T02:18:43.095Z,5.90
2018-01-03T02:21:10.791Z,5.90
2018-01-03T02:23:38.445Z,5.90
2018-01-03T02:26:06.138Z,5.90
2018-01-03T02:28:33.786Z,6.00
2018-01-03T02:31:02.245Z,5.90
2018-01-03T02:33:29.893Z,5.90
2018-01-03T02:35:57.594Z,5.90
2018-01-03T02:38:31.347Z,6.00
2018-01-03T02:40:59.042Z,6.00
2018-01-03T02:43:27.461Z,6.00
2018-01-03T02:45:55.166Z,6.00
2018-01-03T02:48:22.822Z,6.10
2018-01-03T02:50:50.526Z,6.00
2018-01-03T02:53:18.174Z,6.00
2018-01-03T02:55:45.862Z,6.00
2018-01-03T02:58:13.513Z,6.10
2018-01-03T03:00:41.211Z,6.10
2018-01-03T03:03:08.858Z,6.10
2018-01-03T03:05:36.544Z,6.10
2018-01-03T03:08:04.963Z,6.10
2018-01-03T03:10:32.653Z,6.10
2018-01-03T03:13:01.075Z,6.20
2018-01-03T03:15:29.543Z,6.30
2018-01-03T03:17:57.950Z,6.30
2018-01-03T03:20:25.637Z,6.30
2018-01-03T03:22:53.285Z,6.30
2018-01-03T03:25:20.979Z,6.40
2018-01-03T03:27:48.626Z,6.50
2018-01-03T03:30:16.327Z,6.50
2018-01-03T03:32:44.746Z,6.60
2018-01-03T03:35:12.439Z,6.60
2018-01-03T03:37:40.090Z,6.70
2018-01-03T03:40:07.777Z,6.70
2018-01-03T03:42:36.188Z,6.80
2018-01-03T03:45:03.936Z,6.80
2018-01-03T03:47:31.613Z,6.80
2018-01-03T03:49:59.299Z,6.90
2018-01-03T03:52:26.954Z,6.90
2018-01-03T03:54:54.650Z,6.90
2018-01-03T03:57:23.069Z,7.00
2018-01-03T03:59:50.806Z,7.00
2018-01-03T04:02:18.463Z,7.10
2018-01-03T04:04:46.154Z,7.10
2018-01-03T04:07:13.818Z,7.10
2018-01-03T04:09:41.533Z,7.20
2018-01-03T04:12:10.058Z,7.30
2018-01-03T04:14:37.715Z,7.30
2018-01-03T04:17:05.406Z,7.40
2018-01-03T04:19:33.067Z,7.40
2018-01-03T04:22:00.767Z,7.40
2018-01-03T04:24:28.418Z,7.50
2018-01-03T04:26:56.113Z,7.50
2018-01-03T04:29:23.773Z,7.60
2018-01-03T04:31:51.474Z,7.60
2018-01-03T04:34:19.899Z,7.80
2018-01-03T04:36:47.599Z,7.80
2018-01-03T04:39:15.259Z,7.80
2018-01-03T04:41:42.950Z,7.90
2018-01-03T04:44:10.599Z,8.00
2018-01-03T04:46:39.058Z,8.10
2018-01-03T04:49:06.714Z,8.10
2018-01-03T04:51:34.421Z,8.30
2018-01-03T04:54:02.070Z,8.40
2018-01-03T04:56:29.767Z,8.50
2018-01-03T04:58:57.405Z,8.50
2018-01-03T05:01:25.102Z,8.60
2018-01-03T05:03:52.754Z,8.70
2018-01-03T05:06:20.442Z,8.70
2018-01-03T05:08:48.854Z,8.90
2018-01-03T05:11:16.558Z,8.90
2018-01-03T05:13:44.206Z,8.90
2018-01-03T05:16:11.894Z,9.00
2018-01-03T05:18:40.323Z,9.10
2018-01-03T05:21:08.015Z,9.10
2018-01-03T05:23:35.667Z,9.20
2018-01-03T05:26:03.397Z,9.20
2018-01-03T05:28:31.042Z,9.30
2018-01-03T05:30:58.730Z,9.40
2018-01-03T05:33:26.388Z,9.40
2018-01-03T05:35:54.082Z,9.40
2018-01-03T05:38:21.737Z,9.40
2018-01-03T05:40:49.422Z,9.40
2018-01-03T05:43:17.834Z,9.50
2018-01-03T05:45:45.535Z,9.50
2018-01-03T05:48:13.179Z,9.50
2018-01-03T05:50:40.875Z,9.40
2018-01-03T05:53:09.291Z,9.50
2018-01-03T05:55:36.990Z,9.40
2018-01-03T05:58:04.643Z,9.50
2018-01-03T06:00:32.353Z,9.60
2018-01-03T06:03:00.014Z,9.60
2018-01-03T06:05:27.733Z,9.60
2018-01-03T06:07:55.390Z,9.60
2018-01-03T06:10:23.101Z,9.60
2018-01-03T06:12:50.750Z,9.60
2018-01-03T06:15:18.447Z,9.60
2018-01-03T06:17:46.105Z,9.50
2018-01-03T06:20:13.810Z,8.90
2018-01-03T06:22:42.223Z,8.40
2018-01-03T06:25:09.873Z,8.30
2018-01-03T06:27:37.571Z,8.40
2018-01-03T06:30:05.227Z,8.30
2018-01-03T06:32:32.923Z,8.40
2018-01-03T06:35:01.347Z,8.60
2018-01-03T06:37:29.046Z,8.50
2018-01-03T06:39:57.461Z,8.70
2018-01-03T06:42:25.183Z,8.70
2018-01-03T06:44:53.602Z,8.80
2018-01-03T06:47:21.298Z,8.80
2018-01-03T06:49:48.955Z,8.90
2018-01-03T06:52:16.646Z,8.90
2018-01-03T06:54:45.299Z,9.10
2018-01-03T06:57:12.985Z,9.00
2018-01-03T06:59:41.394Z,9.10
2018-01-03T07:02:09.089Z,9.10
2018-01-03T07:04:36.868Z,9.20
2018-01-03T07:07:05.273Z,9.20
2018-01-03T07:09:32.992Z,9.30
2018-01-03T07:12:05.614Z,9.30
2018-01-03T07:14:45.359Z,9.30
2018-01-03T07:17:13.238Z,9.20
2018-01-03T07:19:41.126Z,9.10
2018-01-03T07:22:09.635Z,9.00
2018-01-03T07:24:37.620Z,9.00
2018-01-03T07:27:05.379Z,9.10
2018-01-03T07:29:33.804Z,9.00
2018-01-03T07:32:01.481Z,9.00
2018-01-03T07:34:29.178Z,9.10
2018-01-03T07:36:57.588Z,9.10
2018-01-03T07:39:25.287Z,9.00
2018-01-03T07:41:52.930Z,9.10
2018-01-03T07:44:20.623Z,9.10
2018-01-03T07:46:49.038Z,9.10
2018-01-03T07:49:16.730Z,9.10
2018-01-03T07:51:44.481Z,9.00
2018-01-03T07:54:12.180Z,9.00
2018-01-03T07:56:40.605Z,8.90
2018-01-03T07:59:08.298Z,8.90
2018-01-03T08:01:35.950Z,8.90
2018-01-03T08:04:03.675Z,9.00
2018-01-03T08:06:31.327Z,9.00
2018-01-03T08:08:59.022Z,9.10
2018-01-03T08:11:26.674Z,9.00
2018-01-03T08:13:54.450Z,9.00
2018-01-03T08:19:00.834Z,9.00
2018-01-03T08:21:28.625Z,9.00
2018-01-03T08:23:56.342Z,9.10
2018-01-03T08:26:24.873Z,9.00
2018-01-03T08:28:52.735Z,9.00
2018-01-03T08:31:20.617Z,8.90
2018-01-03T08:33:48.402Z,8.90
2018-01-03T08:36:16.091Z,8.90
2018-01-03T08:38:43.738Z,8.90
2018-01-03T08:41:11.427Z,8.80
2018-01-03T08:43:39.849Z,8.70
2018-01-03T08:46:07.555Z,8.70
2018-01-03T08:48:35.381Z,8.60
2018-01-03T08:51:03.078Z,8.70
2018-01-03T08:53:30.864Z,8.80
2018-01-03T08:55:58.587Z,8.80
2018-01-03T08:58:26.455Z,8.80
2018-01-03T09:00:54.275Z,8.80
2018-01-03T09:03:22.996Z,8.90
2018-01-03T09:05:50.833Z,9.00
2018-01-03T09:08:18.604Z,9.00
2018-01-03T09:10:46.476Z,9.00
2018-01-03T09:13:14.306Z,9.00
2018-01-03T09:15:42.022Z,9.10
2018-01-03T09:18:09.816Z,9.10
2018-01-03T09:20:37.727Z,9.20
2018-01-03T09:23:05.395Z,9.20
2018-01-03T09:25:33.206Z,9.20
2018-01-03T09:28:00.858Z,9.20
2018-01-03T09:30:29.556Z,9.20
2018-01-03T09:32:57.315Z,9.20
2018-01-03T09:35:25.120Z,9.20
2018-01-03T09:37:52.858Z,9.20
2018-01-03T09:40:20.527Z,9.40
2018-01-03T09:42:48.328Z,9.40
2018-01-03T09:45:16.921Z,9.40
2018-01-03T09:47:45.316Z,9.40
2018-01-03T09:50:14.104Z,9.30
2018-01-03T09:52:42.021Z,9.30
2018-01-03T09:55:09.670Z,9.30
2018-01-03T09:57:38.050Z,9.20
2018-01-03T10:00:07.243Z,9.30
2018-01-03T10:02:35.731Z,9.30
2018-01-03T10:05:03.832Z,9.40
2018-01-03T10:07:31.672Z,9.40
2018-01-03T10:09:59.400Z,9.40
2018-01-03T10:12:27.091Z,9.40
2018-01-03T10:14:54.736Z,9.50
2018-01-03T10:17:22.450Z,9.80
2018-01-03T10:19:50.108Z,9.90
2018-01-03T10:22:17.812Z,9.40
2018-01-03T10:24:45.471Z,7.70
2018-01-03T10:27:13.169Z,7.10
2018-01-03T10:29:41.578Z,6.20
2018-01-03T10:32:09.281Z,6.20
2018-01-03T10:34:36.926Z,6.20
2018-01-03T10:37:04.621Z,6.10
2018-01-03T10:39:33.032Z,5.90
2018-01-03T10:42:00.752Z,5.90
2018-01-03T10:44:29.206Z,5.70
2018-01-03T10:46:56.859Z,5.70
2018-01-03T10:49:24.546Z,5.80
2018-01-03T10:51:53.104Z,6.00
2018-01-03T10:54:20.785Z,6.00
2018-01-03T10:56:49.193Z,6.00
2018-01-03T10:59:16.882Z,5.90
2018-01-03T11:01:45.312Z,6.10
2018-01-03T11:04:14.615Z,6.30
2018-01-03T11:06:42.392Z,6.30
2018-01-03T11:09:10.093Z,6.40
2018-01-03T11:11:37.747Z,6.40
2018-01-03T11:14:05.445Z,6.40
2018-01-03T11:16:34.009Z,6.40
2018-01-03T11:19:01.713Z,6.40
2018-01-03T11:21:29.358Z,6.50
2018-01-03T11:23:58.722Z,6.70
2018-01-03T11:26:26.396Z,6.70
2018-01-03T11:28:54.862Z,7.00
2018-01-03T11:31:22.515Z,6.90
2018-01-03T11:33:50.218Z,7.20
2018-01-03T11:36:17.917Z,7.20
2018-01-03T11:38:45.620Z,7.20
2018-01-03T11:41:13.429Z,7.20
2018-01-03T11:43:41.275Z,7.10
2018-01-03T11:46:08.946Z,7.10
2018-01-03T11:48:36.659Z,7.00
2018-01-03T11:51:05.071Z,7.40
2018-01-03T11:53:32.755Z,7.40
2018-01-03T11:56:00.450Z,7.60
2018-01-03T11:58:28.909Z,7.80
2018-01-03T12:00:56.670Z,7.80
2018-01-03T12:03:24.330Z,7.90
2018-01-03T12:05:52.390Z,8.00
2018-01-03T12:08:20.372Z,8.10
2018-01-03T12:10:48.456Z,8.20
2018-01-03T12:13:17.350Z,8.10
2018-01-03T12:15:45.339Z,8.00
2018-01-03T12:18:13.424Z,8.00
2018-01-03T12:20:41.462Z,8.00
2018-01-03T12:23:09.409Z,8.10
2018-01-03T12:25:37.995Z,8.30
2018-01-03T12:28:05.907Z,8.30
2018-01-03T12:30:34.139Z,8.40
2018-01-03T12:33:02.599Z,8.70
2018-01-03T12:35:30.246Z,8.70
2018-01-03T12:37:57.938Z,8.80
2018-01-03T12:40:26.442Z,8.90
2018-01-03T12:42:55.075Z,8.90
2018-01-03T12:45:22.743Z,9.00
2018-01-03T12:47:51.205Z,9.00
2018-01-03T12:50:18.876Z,9.00
2018-01-03T12:52:46.686Z,9.10
2018-01-03T12:55:14.436Z,9.10
2018-01-03T12:57:42.122Z,9.20
2018-01-03T13:00:09.818Z,9.30
2018-01-03T13:02:37.510Z,9.30
2018-01-03T13:05:05.182Z,9.30
2018-01-03T13:07:32.855Z,9.30
2018-01-03T13:10:00.558Z,9.20
2018-01-03T13:12:28.233Z,9.20
2018-01-03T13:14:57.938Z,9.10
2018-01-03T13:17:25.704Z,9.10
2018-01-03T13:19:53.771Z,9.10
2018-01-03T13:22:21.547Z,9.00
2018-01-03T13:24:50.408Z,9.00
2018-01-03T13:27:19.140Z,9.00
2018-01-03T13:29:48.757Z,9.00
2018-01-03T13:32:16.676Z,8.80
2018-01-03T13:34:44.659Z,8.80
2018-01-03T13:37:12.395Z,8.70
2018-01-03T13:39:41.051Z,8.80
2018-01-03T13:42:08.735Z,8.80
2018-01-03T13:44:38.492Z,8.70
2018-01-03T13:47:06.640Z,8.70
2018-01-03T13:49:34.366Z,8.80
2018-01-03T13:52:02.152Z,8.80
2018-01-03T13:54:29.948Z,8.70
2018-01-03T13:56:57.713Z,8.80
2018-01-03T13:59:25.539Z,8.80
2018-01-03T14:01:53.375Z,8.80
2018-01-03T14:04:21.537Z,8.90
2018-01-03T14:06:49.441Z,8.90
2018-01-03T14:09:17.599Z,8.90
2018-01-03T14:11:46.763Z,8.90
2018-01-03T14:14:15.259Z,8.90
2018-01-03T14:16:43.116Z,8.90
2018-01-03T14:19:11.898Z,8.90
2018-01-03T14:21:40.503Z,8.90
2018-01-03T14:24:09.388Z,9.00
2018-01-03T14:26:37.191Z,9.00
2018-01-03T14:29:05.426Z,9.00
2018-01-03T14:31:34.207Z,9.00
2018-01-03T14:34:02.786Z,8.90
2018-01-03T14:36:30.917Z,8.90
2018-01-03T14:38:58.879Z,8.80
2018-01-03T14:41:27.034Z,8.60
2018-01-03T14:43:55.600Z,8.50
2018-01-03T14:46:23.498Z,8.50
2018-01-03T14:48:52.770Z,8.60
2018-01-03T14:51:20.465Z,8.60
2018-01-03T14:53:48.116Z,8.70
2018-01-03T14:56:15.841Z,8.80
2018-01-03T14:58:43.518Z,8.70
2018-01-03T15:01:11.361Z,8.60
2018-01-03T15:03:39.398Z,8.50
2018-01-03T15:06:07.104Z,8.40
2018-01-03T15:08:34.771Z,8.30
2018-01-03T15:11:02.975Z,8.30
2018-01-03T15:13:31.192Z,8.30
2018-01-03T15:15:59.441Z,8.30
2018-01-03T15:18:27.541Z,8.30
2018-01-03T15:21:03.510Z,8.40
2018-01-03T15:23:36.314Z,8.40
2018-01-03T15:26:04.112Z,8.40
2018-01-03T15:28:33.543Z,8.40
2018-01-03T15:31:01.645Z,8.40
2018-01-03T15:33:29.362Z,8.10
2018-01-03T15:35:57.055Z,8.00
2018-01-03T15:38:24.767Z,7.80
2018-01-03T15:40:53.276Z,7.30
2018-01-03T15:43:21.550Z,7.30
2018-01-03T15:45:49.221Z,7.40
2018-01-03T15:48:19.656Z,7.50
2018-01-03T15:50:47.326Z,7.50
2018-01-03T15:53:15.914Z,7.70
2018-01-03T15:55:46.218Z,7.80
2018-01-03T15:58:13.923Z,7.90
2018-01-03T16:00:42.478Z,7.90
2018-01-03T16:03:10.286Z,7.90
2018-01-03T16:05:37.958Z,8.00
2018-01-03T16:08:05.792Z,8.00
2018-01-03T16:10:34.506Z,8.00
2018-01-03T16:13:03.516Z,7.90
2018-01-03T16:15:31.908Z,7.90
2018-01-03T16:17:59.598Z,7.80
2018-01-03T16:20:28.025Z,7.40
2018-01-03T16:22:57.351Z,7.40
2018-01-03T16:25:25.040Z,7.50
2018-01-03T16:27:55.257Z,7.60
2018-01-03T16:30:22.960Z,7.60
2018-01-03T16:32:51.624Z,7.60
2018-01-03T16:35:19.269Z,7.50
2018-01-03T16:37:46.922Z,7.50
2018-01-03T16:40:15.834Z,7.50
2018-01-03T16:42:43.761Z,7.40
2018-01-03T16:45:12.235Z,7.40
2018-01-03T16:47:40.734Z,7.40
2018-01-03T16:50:08.435Z,7.40
2018-01-03T16:52:41.698Z,7.40
2018-01-03T16:55:09.448Z,7.40
2018-01-03T16:57:37.098Z,7.30
2018-01-03T17:00:04.885Z,7.30
2018-01-03T17:02:32.538Z,7.30
2018-01-03T17:05:00.853Z,7.30
2018-01-03T17:07:29.346Z,7.40
2018-01-03T17:09:57.063Z,7.30
2018-01-03T17:12:24.727Z,7.40
2018-01-03T17:14:52.421Z,7.30
2018-01-03T17:17:20.272Z,7.30
2018-01-03T17:19:47.996Z,7.40
2018-01-03T17:22:15.658Z,7.30
2018-01-03T17:24:43.425Z,7.30
2018-01-03T17:27:12.698Z,7.30
2018-01-03T17:29:40.677Z,7.30
2018-01-03T17:32:08.589Z,7.30
2018-01-03T17:34:36.458Z,7.40
2018-01-03T17:37:04.264Z,7.30
2018-01-03T17:39:31.998Z,7.40
2018-01-03T17:42:00.432Z,7.40
2018-01-03T17:44:28.171Z,7.40
2018-01-03T17:46:55.858Z,7.40
2018-01-03T17:49:23.507Z,7.40
2018-01-03T17:51:51.233Z,7.50
2018-01-03T17:54:19.736Z,7.40
2018-01-03T17:56:47.442Z,7.40
2018-01-03T17:59:15.105Z,7.40
2018-01-03T18:01:42.810Z,7.30
2018-01-03T18:04:10.458Z,7.30
2018-01-03T18:06:38.175Z,7.20
2018-01-03T18:09:05.834Z,7.30
2018-01-03T18:11:33.526Z,7.30
2018-01-03T18:14:01.951Z,7.20
2018-01-03T18:16:30.425Z,7.10
2018-01-03T18:18:58.097Z,7.10
2018-01-03T18:21:25.802Z,7.10
2018-01-03T18:23:54.214Z,6.90
2018-01-03T18:26:21.911Z,6.90
2018-01-03T18:28:49.608Z,6.90
2018-01-03T18:31:17.384Z,6.80
2018-01-03T18:33:45.187Z,6.80
2018-01-03T18:36:12.891Z,6.80
2018-01-03T18:38:40.888Z,6.70
2018-01-03T18:41:08.718Z,6.70
2018-01-03T18:43:36.412Z,6.70
2018-01-03T18:46:04.179Z,6.70
2018-01-03T18:48:31.893Z,6.70
2018-01-03T18:50:59.626Z,6.70
2018-01-03T18:53:27.836Z,6.70
2018-01-03T18:55:55.620Z,6.80
2018-01-03T18:58:23.293Z,6.80
2018-01-03T19:00:51.107Z,6.80
2018-01-03T19:03:19.786Z,7.00
2018-01-03T19:05:48.611Z,7.00
2018-01-03T19:08:16.348Z,7.00
2018-01-03T19:10:44.083Z,7.00
2018-01-03T19:13:11.811Z,7.10
2018-01-03T19:15:39.531Z,7.10
2018-01-03T19:18:07.205Z,7.20
2018-01-03T19:20:34.908Z,7.20
2018-01-03T19:23:02.590Z,7.30
2018-01-03T19:25:31.067Z,7.30
2018-01-03T19:27:59.810Z,7.20
2018-01-03T19:30:27.592Z,7.20
2018-01-03T19:32:56.156Z,7.30
2018-01-03T19:35:24.890Z,7.30
2018-01-03T19:37:53.456Z,7.30
2018-01-03T19:40:22.087Z,7.30
2018-01-03T19:42:50.617Z,7.30
2018-01-03T19:45:20.060Z,7.30
2018-01-03T19:47:49.385Z,7.30
2018-01-03T19:50:17.228Z,7.30
2018-01-03T19:52:44.908Z,7.30
2018-01-03T19:55:14.571Z,7.40
2018-01-03T19:57:42.308Z,7.40
2018-01-03T20:00:10.892Z,7.40
2018-01-03T20:02:39.336Z,7.30
2018-01-03T20:05:07.083Z,7.30
2018-01-03T20:07:34.738Z,7.30
2018-01-03T20:10:02.409Z,7.20
2018-01-03T20:12:30.207Z,7.20
2018-01-03T20:14:57.870Z,7.20
2018-01-03T20:17:26.369Z,7.10
2018-01-03T20:19:54.114Z,7.10
2018-01-03T20:22:21.900Z,7.20
2018-01-03T20:24:49.575Z,7.20
2018-01-03T20:27:17.283Z,7.20
2018-01-03T20:29:44.970Z,7.20
2018-01-03T20:32:12.797Z,7.30
2018-01-03T20:34:40.473Z,7.30
2018-01-03T20:37:09.001Z,7.30
2018-01-03T20:39:36.692Z,7.30
2018-01-03T20:42:04.688Z,7.30
2018-01-03T20:44:33.117Z,7.20
2018-01-03T20:47:00.870Z,7.20
2018-01-03T20:49:28.551Z,7.20
2018-01-03T20:51:56.299Z,7.10
2018-01-03T20:54:23.980Z,7.20
2018-01-03T20:56:51.715Z,7.20
2018-01-03T20:59:19.411Z,7.20
2018-01-03T21:01:47.911Z,7.20
2018-01-03T21:04:16.389Z,7.20
2018-01-03T21:06:45.120Z,7.20
2018-01-03T21:09:12.958Z,7.10
2018-01-03T21:11:40.828Z,7.20
2018-01-03T21:14:13.243Z,7.20
2018-01-03T21:16:43.705Z,7.20
2018-01-03T21:19:11.399Z,7.20
2018-01-03T21:21:39.115Z,7.30
2018-01-03T21:24:07.563Z,7.30
2018-01-03T21:26:35.298Z,7.30
2018-01-03T21:29:02.977Z,7.40
2018-01-03T21:31:30.688Z,7.40
2018-01-03T21:33:58.351Z,7.40
2018-01-03T21:36:26.067Z,7.40
2018-01-03T21:38:53.748Z,7.40
2018-01-03T21:41:22.272Z,7.50
2018-01-03T21:43:49.980Z,7.50
2018-01-03T21:46:18.485Z,7.50
2018-01-03T21:48:46.284Z,7.50
2018-01-03T21:51:14.040Z,7.50
2018-01-03T21:53:41.702Z,7.40
2018-01-03T21:56:09.459Z,7.40
2018-01-03T21:58:37.161Z,7.40
2018-01-03T22:01:04.871Z,7.40
2018-01-03T22:03:32.545Z,7.30
2018-01-03T22:06:00.278Z,7.30
2018-01-03T22:08:28.244Z,7.30
2018-01-03T22:10:56.251Z,7.30
2018-01-03T22:13:23.947Z,7.20
2018-01-03T22:15:52.402Z,7.20
2018-01-03T22:18:20.440Z,7.20
2018-01-03T22:20:48.134Z,7.10
2018-01-03T22:23:15.795Z,7.20
2018-01-03T22:25:43.490Z,7.20
2018-01-03T22:28:11.146Z,7.20
2018-01-03T22:30:38.808Z,7.20
2018-01-03T22:33:06.540Z,7.20
2018-01-03T22:35:34.233Z,7.20
2018-01-03T22:38:01.934Z,7.10
2018-01-03T22:40:29.587Z,7.10
2018-01-03T22:42:57.286Z,7.20
2018-01-03T22:45:25.694Z,7.10
2018-01-03T22:47:53.409Z,7.10
2018-01-03T22:50:21.119Z,7.10
2018-01-03T22:52:48.799Z,7.10
2018-01-03T22:55:16.446Z,7.00
2018-01-03T22:57:44.140Z,7.00
2018-01-03T23:00:11.790Z,6.90
2018-01-03T23:02:39.726Z,6.90
2018-01-03T23:05:07.847Z,6.80
2018-01-03T23:07:36.311Z,6.70
2018-01-03T23:10:04.008Z,6.70
2018-01-03T23:12:31.720Z,6.70
2018-01-03T23:14:59.382Z,6.70
2018-01-03T23:17:27.084Z,6.70
2018-01-03T23:19:54.730Z,6.70
2018-01-03T23:22:23.186Z,6.60
2018-01-03T23:24:50.842Z,6.60
2018-01-03T23:27:18.551Z,6.60
2018-01-03T23:29:46.205Z,6.50
2018-01-03T23:32:13.911Z,6.50
2018-01-03T23:34:41.580Z,6.50
2018-01-03T23:37:09.288Z,6.60
2018-01-03T23:39:36.947Z,6.60
2018-01-03T23:42:04.646Z,6.70
2018-01-03T23:44:32.302Z,6.70
2018-01-03T23:47:00.021Z,6.60
2018-01-03T23:49:27.690Z,6.60
2018-01-03T23:51:55.395Z,6.60
2018-01-03T23:54:23.062Z,6.60
2018-01-03T23:56:50.771Z,6.60
2018-01-03T23:59:18.427Z,6.60
